Time;durP1;ratioP1;P1;durP2;ratioP2;P2;SDS_P1;SDS_P2;PMS_P1;PMS_P2;Temp;Humidity;BMP_temperature;BMP_pressure;BME280_temperature;BME280_humidity;BME280_pressure;Samples;Min_cycle;Max_cycle;Signal;HPM_P1;HPM_P2
2022/09/13 00:00:18;;;;;;;;;;;17.40;99.90;;;;;;5056609;28;19917;-81
2022/09/13 00:02:44;;;;;;;;;;;17.40;99.90;;;;;;5039837;28;20524;-81
2022/09/13 00:05:10;;;;;;;;;;;17.40;99.90;;;;;;5040142;28;20345;-80
2022/09/13 00:07:35;;;;;;;;;;;17.10;99.90;;;;;;5056443;28;19921;-80
2022/09/13 00:10:01;;;;;;;;;;;17.00;99.90;;;;;;5056686;28;19920;-80
2022/09/13 00:12:26;;;;;;;;;;;17.20;99.90;;;;;;5039918;28;20007;-80
2022/09/13 00:14:52;;;;;;;;;;;17.30;99.90;;;;;;5056240;28;19916;-80
2022/09/13 00:17:18;;;;;;;;;;;17.10;99.90;;;;;;5039670;28;19969;-80
2022/09/13 00:19:43;;;;;;;;;;;17.40;99.90;;;;;;5056142;28;19920;-80
2022/09/13 00:22:09;;;;;;;;;;;17.30;99.90;;;;;;5056010;28;19927;-80
2022/09/13 00:24:34;;;;;;;;;;;17.00;99.90;;;;;;5056599;28;19920;-81
2022/09/13 00:27:00;;;;;;;;;;;17.00;99.90;;;;;;5055973;28;20398;-80
2022/09/13 00:29:26;;;;;;;;;;;17.30;99.90;;;;;;5056429;28;19964;-81
2022/09/13 00:31:51;;;;;;;;;;;17.00;99.90;;;;;;5057081;28;19920;-80
2022/09/13 00:34:17;;;;;;;;;;;17.20;99.90;;;;;;5055551;28;19920;-80
2022/09/13 00:36:42;;;;;;;;;;;17.00;99.90;;;;;;5056192;28;19985;-81
2022/09/13 00:39:09;;;;;;;;;;;17.30;99.90;;;;;;5055666;28;19962;-80
2022/09/13 00:41:34;;;;;;;;;;;17.30;99.90;;;;;;5032195;28;19960;-80
2022/09/13 00:44:01;;;;;;;;;;;17.30;99.90;;;;;;5050140;28;19955;-80
2022/09/13 00:46:32;;;;;;;;;;;17.30;99.90;;;;;;5035525;28;19923;-81
2022/09/13 00:49:08;;;;;;;;;;;16.90;99.90;;;;;;5052397;28;19921;-80
2022/09/13 00:51:34;;;;;;;;;;;16.90;99.90;;;;;;5052006;28;19942;-80
2022/09/13 00:54:00;;;;;;;;;;;17.20;99.90;;;;;;5051847;28;19916;-80
2022/09/13 00:56:33;;;;;;;;;;;17.00;99.90;;;;;;5035303;28;19924;-80
2022/09/13 00:59:05;;;;;;;;;;;17.30;99.90;;;;;;5035276;28;19972;-81
2022/09/13 01:01:39;;;;;;;;;;;17.00;99.90;;;;;;5052040;28;19921;-80
2022/09/13 01:04:05;;;;;;;;;;;17.30;99.90;;;;;;5051762;28;19963;-81
2022/09/13 01:06:33;;;;;;;;;;;17.30;99.90;;;;;;5051810;28;19924;-81
2022/09/13 01:09:03;;;;;;;;;;;17.10;99.90;;;;;;5051661;28;19917;-81
2022/09/13 01:11:28;;;;;;;;;;;16.90;99.90;;;;;;5052294;28;19926;-81
2022/09/13 01:13:54;;;;;;;;;;;17.00;99.90;;;;;;5052049;28;19921;-81
2022/09/13 01:16:20;;;;;;;;;;;16.90;99.90;;;;;;5051979;28;20332;-81
2022/09/13 01:18:45;;;;;;;;;;;17.10;99.90;;;;;;5052482;28;20011;-81
2022/09/13 01:21:30;;;;;;;;;;;17.10;99.90;;;;;;5051935;28;19921;-81
2022/09/13 01:24:14;;;;;;;;;;;17.20;99.90;;;;;;5051999;28;19999;-82
2022/09/13 01:26:46;;;;;;;;;;;16.90;99.90;;;;;;5051412;28;19917;-80
2022/09/13 01:29:30;;;;;;;;;;;16.80;99.90;;;;;;5051776;28;20397;-82
2022/09/13 01:31:56;;;;;;;;;;;17.20;99.90;;;;;;5051926;28;19943;-80
2022/09/13 01:34:34;;;;;;;;;;;17.30;99.90;;;;;;5052012;28;20376;-80
2022/09/13 01:37:18;;;;;;;;;;;17.00;99.90;;;;;;5051651;28;19920;-80
2022/09/13 01:40:05;;;;;;;;;;;17.00;99.90;;;;;;5050820;28;19920;-80
2022/09/13 01:42:37;;;;;;;;;;;17.20;99.90;;;;;;5042675;28;19954;-81
2022/09/13 01:45:03;;;;;;;;;;;17.20;99.90;;;;;;5055588;28;19916;-81
2022/09/13 01:47:28;;;;;;;;;;;17.20;99.90;;;;;;5038812;28;19922;-82
2022/09/13 01:50:03;;;;;;;;;;;17.20;99.90;;;;;;5038908;28;19996;-82
2022/09/13 01:52:51;;;;;;;;;;;16.90;99.90;;;;;;5038740;28;19927;-81
2022/09/13 01:55:22;;;;;;;;;;;17.20;99.90;;;;;;5055392;28;19920;-81
2022/09/13 01:57:51;;;;;;;;;;;16.90;99.90;;;;;;5026169;28;20272;-81
2022/09/13 02:00:17;;;;;;;;;;;16.90;99.90;;;;;;5054754;28;20330;-82
2022/09/13 02:02:52;;;;;;;;;;;16.80;99.90;;;;;;5041731;28;19916;-82
2022/09/13 02:05:34;;;;;;;;;;;16.80;99.90;;;;;;5054688;28;19917;-81
2022/09/13 02:08:02;;;;;;;;;;;17.30;99.90;;;;;;5054738;28;19960;-81
2022/09/13 02:10:37;;;;;;;;;;;17.30;99.90;;;;;;5053829;28;19931;-82
2022/09/13 02:13:05;;;;;;;;;;;17.30;99.90;;;;;;5038215;28;19916;-81
2022/09/13 02:15:42;;;;;;;;;;;17.30;99.90;;;;;;5038282;28;19952;-81
2022/09/13 02:18:11;;;;;;;;;;;17.30;99.90;;;;;;5044215;28;19982;-81
2022/09/13 02:20:42;;;;;;;;;;;17.00;99.90;;;;;;5054700;28;19917;-81
2022/09/13 02:23:10;;;;;;;;;;;17.20;99.90;;;;;;5050419;28;19916;-81
2022/09/13 02:25:36;;;;;;;;;;;16.80;99.90;;;;;;5054380;28;19942;-81
2022/09/13 02:28:06;;;;;;;;;;;17.10;99.90;;;;;;5054474;28;20322;-82
2022/09/13 02:30:36;;;;;;;;;;;16.90;99.90;;;;;;5052566;28;19920;-81
2022/09/13 02:33:06;;;;;;;;;;;17.00;99.90;;;;;;5054486;28;20366;-81
2022/09/13 02:35:31;;;;;;;;;;;17.30;99.90;;;;;;5054515;28;19916;-82
2022/09/13 02:38:01;;;;;;;;;;;17.20;99.90;;;;;;5054175;28;19920;-81
2022/09/13 02:40:30;;;;;;;;;;;17.00;99.90;;;;;;5054506;28;19924;-81
2022/09/13 02:43:09;;;;;;;;;;;17.10;99.90;;;;;;5072432;28;19959;-81
2022/09/13 02:45:40;;;;;;;;;;;17.00;99.90;;;;;;5047653;28;19974;-80
2022/09/13 02:48:15;;;;;;;;;;;17.20;99.90;;;;;;5054491;28;19916;-81
2022/09/13 02:50:52;;;;;;;;;;;17.10;99.90;;;;;;5037517;28;19921;-80
2022/09/13 02:53:21;;;;;;;;;;;17.00;99.90;;;;;;5054662;28;19920;-80
2022/09/13 02:56:04;;;;;;;;;;;17.00;99.90;;;;;;5038047;28;20114;-80
2022/09/13 02:58:48;;;;;;;;;;;16.90;99.90;;;;;;5054150;28;19924;-81
2022/09/13 03:01:14;;;;;;;;;;;17.50;99.90;;;;;;5054582;28;19916;-80
2022/09/13 03:03:40;;;;;;;;;;;17.00;99.90;;;;;;5051221;28;19916;-81
2022/09/13 03:06:06;;;;;;;;;;;16.90;99.90;;;;;;5034622;28;19920;-80
2022/09/13 03:08:32;;;;;;;;;;;17.00;99.90;;;;;;5032209;28;19925;-79
2022/09/13 03:11:20;;;;;;;;;;;17.10;99.90;;;;;;5053793;28;19978;-81
2022/09/13 03:14:04;;;;;;;;;;;16.90;99.90;;;;;;5053750;28;19916;-81
2022/09/13 03:16:33;;;;;;;;;;;17.20;99.90;;;;;;5054513;28;19917;-81
2022/09/13 03:19:04;;;;;;;;;;;16.60;99.90;;;;;;5037325;28;19916;-81
2022/09/13 03:21:49;;;;;;;;;;;16.50;99.90;;;;;;5056549;28;19917;-80
2022/09/13 03:24:39;;;;;;;;;;;16.80;99.90;;;;;;5040521;28;19916;-81
2022/09/13 03:27:05;;;;;;;;;;;16.50;99.90;;;;;;5057524;28;20003;-79
2022/09/13 03:29:39;;;;;;;;;;;17.00;99.90;;;;;;5057299;28;20349;-80
2022/09/13 03:32:05;;;;;;;;;;;16.50;99.90;;;;;;5057227;28;19927;-80
2022/09/13 03:34:38;;;;;;;;;;;17.00;99.90;;;;;;5057143;28;19916;-81
2022/09/13 03:37:07;;;;;;;;;;;17.00;99.90;;;;;;5041470;28;19920;-80
2022/09/13 03:39:45;;;;;;;;;;;16.40;99.90;;;;;;5057289;28;19970;-80
2022/09/13 03:42:17;;;;;;;;;;;16.90;99.90;;;;;;5059389;28;19916;-81
2022/09/13 03:44:45;;;;;;;;;;;16.40;99.90;;;;;;5057288;28;19920;-81
2022/09/13 03:47:11;;;;;;;;;;;16.50;99.90;;;;;;5057346;28;19917;-81
2022/09/13 03:49:38;;;;;;;;;;;17.00;99.90;;;;;;5057452;28;20030;-82
2022/09/13 03:52:03;;;;;;;;;;;16.50;99.90;;;;;;5057112;28;20374;-81
2022/09/13 03:54:31;;;;;;;;;;;16.50;99.90;;;;;;5057631;28;19916;-82
2022/09/13 03:57:06;;;;;;;;;;;16.50;99.90;;;;;;5054179;28;20105;-82
2022/09/13 03:59:32;;;;;;;;;;;16.70;99.90;;;;;;5048745;28;19923;-81
2022/09/13 04:01:57;;;;;;;;;;;17.00;99.90;;;;;;5056175;28;19920;-81
2022/09/13 04:04:23;;;;;;;;;;;16.50;99.90;;;;;;5056106;28;19985;-81
2022/09/13 04:06:48;;;;;;;;;;;16.90;99.90;;;;;;5036215;28;19938;-81
2022/09/13 04:09:14;;;;;;;;;;;16.70;99.90;;;;;;5037023;28;20024;-81
2022/09/13 04:11:40;;;;;;;;;;;16.50;99.90;;;;;;5036376;28;19952;-81
2022/09/13 04:14:05;;;;;;;;;;;16.90;99.90;;;;;;5054729;28;19923;-81
2022/09/13 04:16:31;;;;;;;;;;;16.50;99.90;;;;;;5057208;28;19956;-81
2022/09/13 04:18:56;;;;;;;;;;;17.00;99.90;;;;;;5056724;28;20403;-81
2022/09/13 04:21:22;;;;;;;;;;;16.90;99.90;;;;;;5056678;28;20336;-82
2022/09/13 04:23:49;;;;;;;;;;;16.90;99.90;;;;;;5056865;28;20351;-81
2022/09/13 04:26:14;;;;;;;;;;;16.90;99.90;;;;;;5040022;28;20360;-81
2022/09/13 04:28:40;;;;;;;;;;;17.00;99.90;;;;;;5039629;28;19952;-81
2022/09/13 04:31:05;;;;;;;;;;;16.50;99.90;;;;;;5056211;28;19920;-81
2022/09/13 04:33:31;;;;;;;;;;;16.60;99.90;;;;;;5038993;28;19916;-82
2022/09/13 04:35:58;;;;;;;;;;;16.50;99.90;;;;;;5040207;28;20368;-81
2022/09/13 04:38:23;;;;;;;;;;;16.50;99.90;;;;;;5056055;28;19966;-81
2022/09/13 04:40:53;;;;;;;;;;;17.00;99.90;;;;;;5056495;28;19920;-82
2022/09/13 04:43:19;;;;;;;;;;;16.50;99.90;;;;;;5056649;28;19951;-82
2022/09/13 04:45:45;;;;;;;;;;;16.40;99.90;;;;;;5055904;28;20228;-82
2022/09/13 04:48:11;;;;;;;;;;;16.40;99.90;;;;;;5055998;28;19923;-82
2022/09/13 04:50:36;;;;;;;;;;;17.00;99.90;;;;;;5056314;28;19920;-82
2022/09/13 04:53:02;;;;;;;;;;;16.50;99.90;;;;;;5056256;28;19922;-82
2022/09/13 04:55:28;;;;;;;;;;;16.50;99.90;;;;;;5051318;28;19944;-82
2022/09/13 04:57:54;;;;;;;;;;;17.00;99.90;;;;;;5046515;28;20001;-81
2022/09/13 05:00:20;;;;;;;;;;;16.70;99.90;;;;;;5056066;28;19930;-82
2022/09/13 05:02:45;;;;;;;;;;;16.50;99.90;;;;;;5039146;28;19916;-82
2022/09/13 05:05:11;;;;;;;;;;;16.50;99.90;;;;;;5038982;28;19923;-82
2022/09/13 05:07:36;;;;;;;;;;;16.60;99.90;;;;;;5039432;28;19926;-82
2022/09/13 05:10:02;;;;;;;;;;;16.40;99.90;;;;;;5039660;28;19970;-82
2022/09/13 05:12:28;;;;;;;;;;;16.70;99.90;;;;;;5055697;28;19927;-81
2022/09/13 05:14:53;;;;;;;;;;;16.90;99.90;;;;;;5056341;28;19942;-82
2022/09/13 05:17:20;;;;;;;;;;;17.10;99.90;;;;;;5055983;28;20295;-82
2022/09/13 05:19:46;;;;;;;;;;;17.00;99.90;;;;;;5055729;28;19943;-82
2022/09/13 05:22:12;;;;;;;;;;;17.10;99.90;;;;;;5039166;28;19920;-82
2022/09/13 05:24:37;;;;;;;;;;;16.50;99.90;;;;;;5038661;28;19939;-82
2022/09/13 05:27:03;;;;;;;;;;;16.40;99.90;;;;;;5037638;28;19916;-74
2022/09/13 05:29:28;;;;;;;;;;;16.60;99.90;;;;;;5054118;28;19920;-74
2022/09/13 05:31:54;;;;;;;;;;;16.30;99.90;;;;;;5053692;28;20410;-73
2022/09/13 05:34:20;;;;;;;;;;;16.90;99.90;;;;;;5037553;28;19978;-73
2022/09/13 05:36:46;;;;;;;;;;;16.40;99.90;;;;;;5037403;28;19927;-73
2022/09/13 05:39:13;;;;;;;;;;;16.30;99.90;;;;;;5053790;28;20057;-73
2022/09/13 05:41:39;;;;;;;;;;;16.70;99.90;;;;;;5053515;28;19924;-73
2022/09/13 05:44:04;;;;;;;;;;;16.30;99.90;;;;;;5053562;28;19923;-73
2022/09/13 05:46:30;;;;;;;;;;;16.90;99.90;;;;;;5053876;28;19939;-74
2022/09/13 05:48:58;;;;;;;;;;;16.20;99.90;;;;;;5037350;28;20330;-73
2022/09/13 05:51:24;;;;;;;;;;;16.20;99.90;;;;;;5053736;28;19934;-73
2022/09/13 05:53:51;;;;;;;;;;;16.30;99.90;;;;;;5053396;28;19920;-73
2022/09/13 05:56:17;;;;;;;;;;;16.30;99.90;;;;;;5053624;28;20260;-73
2022/09/13 05:58:44;;;;;;;;;;;16.90;99.90;;;;;;5053088;28;19922;-73
2022/09/13 06:01:10;;;;;;;;;;;16.40;99.90;;;;;;5053118;28;20342;-73
2022/09/13 06:03:36;;;;;;;;;;;16.90;99.90;;;;;;5053594;28;20467;-73
2022/09/13 06:06:02;;;;;;;;;;;17.00;99.90;;;;;;5053291;28;19999;-73
2022/09/13 06:08:29;;;;;;;;;;;17.00;99.90;;;;;;5076780;28;20298;-73
2022/09/13 06:10:55;;;;;;;;;;;16.50;99.90;;;;;;5053136;28;19921;-73
2022/09/13 06:13:20;;;;;;;;;;;16.50;99.90;;;;;;5053223;28;19946;-73
2022/09/13 06:15:46;;;;;;;;;;;16.80;99.90;;;;;;5053157;28;19932;-73
2022/09/13 06:18:11;;;;;;;;;;;17.10;99.90;;;;;;5053780;28;20395;-73
2022/09/13 06:20:37;;;;;;;;;;;16.80;99.90;;;;;;5053169;28;19920;-73
2022/09/13 06:23:02;;;;;;;;;;;16.50;99.90;;;;;;5053336;28;20368;-73
2022/09/13 06:25:28;;;;;;;;;;;16.50;99.90;;;;;;5036231;28;20430;-73
2022/09/13 06:27:54;;;;;;;;;;;17.10;99.90;;;;;;5053000;28;19920;-72
2022/09/13 06:30:19;;;;;;;;;;;17.10;99.90;;;;;;5050259;28;20010;-74
2022/09/13 06:32:45;;;;;;;;;;;17.10;99.90;;;;;;5037499;28;19958;-74
2022/09/13 06:35:10;;;;;;;;;;;16.70;99.90;;;;;;5052733;28;19923;-73
2022/09/13 06:37:36;;;;;;;;;;;17.00;99.90;;;;;;5046971;28;19921;-74
2022/09/13 06:40:04;;;;;;;;;;;17.00;99.90;;;;;;5050414;28;20027;-74
2022/09/13 06:42:29;;;;;;;;;;;17.20;99.90;;;;;;5052742;28;19967;-74
2022/09/13 06:44:55;;;;;;;;;;;16.60;99.90;;;;;;5052584;28;20017;-73
2022/09/13 06:47:20;;;;;;;;;;;17.20;99.90;;;;;;5035702;28;19928;-73
2022/09/13 06:49:46;;;;;;;;;;;17.00;99.90;;;;;;5035470;28;19964;-74
2022/09/13 06:52:12;;;;;;;;;;;17.20;99.90;;;;;;5052627;28;19931;-73
2022/09/13 06:54:38;;;;;;;;;;;17.40;99.90;;;;;;5050885;28;20682;-73
2022/09/13 06:57:03;;;;;;;;;;;17.80;99.90;;;;;;5042202;28;20275;-73
2022/09/13 06:59:29;;;;;;;;;;;17.70;99.90;;;;;;5059412;28;19920;-73
2022/09/13 07:01:55;;;;;;;;;;;17.70;99.90;;;;;;5059234;28;19998;-72
2022/09/13 07:04:22;;;;;;;;;;;17.40;99.90;;;;;;5057270;28;20011;-72
2022/09/13 07:06:48;;;;;;;;;;;17.30;99.90;;;;;;5059185;28;19967;-72
2022/09/13 07:09:18;;;;;;;;;;;17.40;99.90;;;;;;5059528;28;19924;-71
2022/09/13 07:11:45;;;;;;;;;;;17.80;99.90;;;;;;5077967;28;20340;-71
2022/09/13 07:14:12;;;;;;;;;;;17.80;99.90;;;;;;5059587;28;19964;-71
2022/09/13 07:16:38;;;;;;;;;;;17.70;99.90;;;;;;5059246;28;20025;-71
2022/09/13 07:19:05;;;;;;;;;;;17.70;99.90;;;;;;5059542;28;19975;-72
2022/09/13 07:21:31;;;;;;;;;;;17.50;99.90;;;;;;5058666;28;20337;-71
2022/09/13 07:23:57;;;;;;;;;;;17.60;99.90;;;;;;5067074;28;19921;-72
2022/09/13 07:26:23;;;;;;;;;;;17.50;99.90;;;;;;5057408;28;19982;-71
2022/09/13 07:28:51;;;;;;;;;;;17.60;99.90;;;;;;5057733;28;19942;-71
2022/09/13 07:31:21;;;;;;;;;;;17.60;99.90;;;;;;5055515;28;19924;-71
2022/09/13 07:33:47;;;;;;;;;;;17.60;99.90;;;;;;5042173;28;20671;-71
2022/09/13 07:36:13;;;;;;;;;;;17.60;99.90;;;;;;5040089;28;19917;-71
2022/09/13 07:38:40;;;;;;;;;;;17.70;99.90;;;;;;5030591;28;19927;-73
2022/09/13 07:41:07;;;;;;;;;;;17.80;99.90;;;;;;5040258;28;20406;-71
2022/09/13 07:43:34;;;;;;;;;;;18.00;99.90;;;;;;5058749;28;19916;-71
2022/09/13 07:46:02;;;;;;;;;;;18.20;99.90;;;;;;5047886;28;19921;-71
2022/09/13 07:48:29;;;;;;;;;;;18.10;99.90;;;;;;5058163;28;20006;-72
2022/09/13 07:51:05;;;;;;;;;;;18.20;99.90;;;;;;5058447;28;19990;-71
2022/09/13 07:53:31;;;;;;;;;;;18.20;99.90;;;;;;5033227;28;20322;-71
2022/09/13 07:56:04;;;;;;;;;;;18.30;99.90;;;;;;5058810;28;19948;-71
2022/09/13 07:58:30;;;;;;;;;;;18.30;99.90;;;;;;5058538;28;20367;-71
2022/09/13 08:00:59;;;;;;;;;;;18.20;99.90;;;;;;5041826;28;19958;-71
2022/09/13 08:03:25;;;;;;;;;;;18.20;99.90;;;;;;5058574;28;19928;-71
2022/09/13 08:05:50;;;;;;;;;;;18.20;99.90;;;;;;5035312;28;19924;-72
2022/09/13 08:08:16;;;;;;;;;;;18.20;99.90;;;;;;5061085;28;19921;-71
2022/09/13 08:10:41;;;;;;;;;;;18.20;99.90;;;;;;5044478;28;19959;-72
2022/09/13 08:13:07;;;;;;;;;;;18.40;99.90;;;;;;5055563;28;19999;-71
2022/09/13 08:15:33;;;;;;;;;;;18.40;99.90;;;;;;5038667;28;19924;-71
2022/09/13 08:17:58;;;;;;;;;;;18.30;99.90;;;;;;5037619;28;19935;-71
2022/09/13 08:20:24;;;;;;;;;;;18.50;99.90;;;;;;5073448;28;19946;-72
2022/09/13 08:22:49;;;;;;;;;;;18.60;99.90;;;;;;5025976;28;19916;-72
2022/09/13 08:25:15;;;;;;;;;;;18.50;99.90;;;;;;5034510;28;19951;-71
2022/09/13 08:27:41;;;;;;;;;;;18.30;99.90;;;;;;5030520;28;19921;-72
2022/09/13 08:30:07;;;;;;;;;;;18.10;99.90;;;;;;5054526;28;19925;-72
2022/09/13 08:32:32;;;;;;;;;;;18.30;99.90;;;;;;5038607;28;19976;-72
2022/09/13 08:34:58;;;;;;;;;;;18.60;99.90;;;;;;5055087;28;19920;-72
2022/09/13 08:37:23;;;;;;;;;;;18.80;99.90;;;;;;5035308;28;20009;-72
2022/09/13 08:39:49;;;;;;;;;;;18.80;99.90;;;;;;5050798;28;20291;-72
2022/09/13 08:42:38;;;;;;;;;;;18.60;99.90;;;;;;5054756;28;20286;-71
2022/09/13 08:45:04;;;;;;;;;;;18.60;99.90;;;;;;5038227;28;19977;-71
2022/09/13 08:47:34;;;;;;;;;;;18.70;99.90;;;;;;5055001;28;20419;-71
2022/09/13 08:50:19;;;;;;;;;;;18.70;99.90;;;;;;5040865;28;19924;-72
2022/09/13 08:52:45;;;;;;;;;;;18.70;99.90;;;;;;5044480;28;19964;-71
2022/09/13 08:55:20;;;;;;;;;;;18.90;99.90;;;;;;5051101;28;19986;-72
2022/09/13 08:57:54;;;;;;;;;;;19.00;99.90;;;;;;5073267;28;19916;-72
2022/09/13 09:00:24;;;;;;;;;;;19.20;99.90;;;;;;5038097;28;19943;-72
2022/09/13 09:02:50;;;;;;;;;;;19.30;99.90;;;;;;5045511;28;20294;-72
2022/09/13 09:05:29;;;;;;;;;;;19.00;99.90;;;;;;5050002;28;19942;-72
2022/09/13 09:08:03;;;;;;;;;;;18.80;99.90;;;;;;5054491;28;20375;-72
2022/09/13 09:10:43;;;;;;;;;;;18.90;99.90;;;;;;5054595;28;20003;-72
2022/09/13 09:13:26;;;;;;;;;;;19.20;99.90;;;;;;5044540;28;19986;-71
2022/09/13 09:15:53;;;;;;;;;;;19.40;99.90;;;;;;5066248;28;19920;-72
2022/09/13 09:18:30;;;;;;;;;;;19.20;99.90;;;;;;5044906;28;19921;-71
2022/09/13 09:20:59;;;;;;;;;;;19.20;99.90;;;;;;5053875;28;20311;-72
2022/09/13 09:23:43;;;;;;;;;;;19.40;99.90;;;;;;5037427;28;19920;-72
2022/09/13 09:26:14;;;;;;;;;;;19.40;99.90;;;;;;5048987;28;19970;-72
2022/09/13 09:28:40;;;;;;;;;;;19.30;99.90;;;;;;5054141;28;19923;-72
2022/09/13 09:31:25;;;;;;;;;;;19.20;99.90;;;;;;5053734;28;19924;-72
2022/09/13 09:34:09;;;;;;;;;;;19.40;99.90;;;;;;5045538;28;19928;-72
2022/09/13 09:36:39;;;;;;;;;;;19.40;99.90;;;;;;5051310;28;19923;-72
2022/09/13 09:39:06;;;;;;;;;;;19.30;99.90;;;;;;5053832;28;19927;-72
2022/09/13 09:41:34;;;;;;;;;;;19.50;99.90;;;;;;5031701;28;19920;-72
2022/09/13 09:43:59;;;;;;;;;;;19.60;99.90;;;;;;5039096;28;20296;-71
2022/09/13 09:46:27;;;;;;;;;;;19.70;99.90;;;;;;5050708;28;19916;-71
2022/09/13 09:48:55;;;;;;;;;;;19.40;99.90;;;;;;5043821;28;20287;-71
2022/09/13 09:51:22;;;;;;;;;;;19.40;99.90;;;;;;5043046;28;19925;-71
2022/09/13 09:53:51;;;;;;;;;;;19.50;99.90;;;;;;5033947;28;19943;-72
2022/09/13 09:56:20;;;;;;;;;;;19.60;99.90;;;;;;5050184;28;19943;-72
2022/09/13 09:58:45;;;;;;;;;;;19.60;99.90;;;;;;5050222;28;19970;-71
2022/09/13 10:01:23;;;;;;;;;;;19.70;99.90;;;;;;5050144;28;19968;-71
2022/09/13 10:03:57;;;;;;;;;;;19.80;99.90;;;;;;5035957;28;19960;-72
2022/09/13 10:06:24;;;;;;;;;;;19.80;99.90;;;;;;5033483;28;19978;-72
2022/09/13 10:08:58;;;;;;;;;;;19.80;99.90;;;;;;5050246;28;19982;-72
2022/09/13 10:11:37;;;;;;;;;;;19.70;99.90;;;;;;5049825;28;19940;-72
2022/09/13 10:14:02;;;;;;;;;;;19.50;99.90;;;;;;5035895;28;20383;-72
2022/09/13 10:16:29;;;;;;;;;;;19.50;99.90;;;;;;5049876;28;20021;-72
2022/09/13 10:19:15;;;;;;;;;;;19.40;99.90;;;;;;5048006;28;20368;-72
2022/09/13 10:21:40;;;;;;;;;;;19.50;99.90;;;;;;5039968;28;20021;-71
2022/09/13 10:24:16;;;;;;;;;;;19.50;99.90;;;;;;5049803;28;19979;-71
2022/09/13 10:26:41;;;;;;;;;;;19.70;99.90;;;;;;5049985;28;19982;-71
2022/09/13 10:29:09;;;;;;;;;;;20.00;99.90;;;;;;5049695;28;20415;-71
2022/09/13 10:31:36;;;;;;;;;;;19.90;99.90;;;;;;5045033;28;19962;-72
2022/09/13 10:34:03;;;;;;;;;;;19.80;99.90;;;;;;5029787;28;19921;-71
2022/09/13 10:36:35;;;;;;;;;;;19.60;99.70;;;;;;5045877;28;19921;-71
2022/09/13 10:39:02;;;;;;;;;;;19.40;99.90;;;;;;5040211;28;20372;-72
2022/09/13 10:41:30;;;;;;;;;;;19.50;99.90;;;;;;5014123;28;20010;-71
2022/09/13 10:43:57;;;;;;;;;;;19.60;99.90;;;;;;5049433;28;19960;-71
2022/09/13 10:46:23;;;;;;;;;;;20.00;99.90;;;;;;5032675;28;19923;-71
2022/09/13 10:48:55;;;;;;;;;;;20.40;99.30;;;;;;5049285;28;19917;-70
2022/09/13 10:51:26;;;;;;;;;;;20.70;98.90;;;;;;5050675;28;20304;-71
2022/09/13 10:54:12;;;;;;;;;;;20.60;99.20;;;;;;5043892;28;19936;-71
2022/09/13 10:56:38;;;;;;;;;;;20.20;99.00;;;;;;5026298;28;19916;-71
2022/09/13 10:59:24;;;;;;;;;;;20.00;99.40;;;;;;5049290;28;19928;-72
2022/09/13 11:01:52;;;;;;;;;;;19.90;99.20;;;;;;5048565;28;19921;-72
2022/09/13 11:04:21;;;;;;;;;;;20.30;99.30;;;;;;5049316;28;20378;-72
2022/09/13 11:07:00;;;;;;;;;;;20.20;98.60;;;;;;5049329;28;19990;-72
2022/09/13 11:09:32;;;;;;;;;;;20.20;98.40;;;;;;5049344;28;19940;-72
2022/09/13 11:12:04;;;;;;;;;;;19.90;98.10;;;;;;5049009;28;19935;-72
2022/09/13 11:14:44;;;;;;;;;;;19.80;98.60;;;;;;5049356;28;19920;-72
2022/09/13 11:17:13;;;;;;;;;;;19.80;98.50;;;;;;5048995;28;20391;-72
2022/09/13 11:19:58;;;;;;;;;;;20.10;98.30;;;;;;5049331;28;20291;-72
2022/09/13 11:22:46;;;;;;;;;;;20.20;98.20;;;;;;5049284;28;20367;-71
2022/09/13 11:25:30;;;;;;;;;;;20.20;97.50;;;;;;5049234;28;19970;-72
2022/09/13 11:28:04;;;;;;;;;;;20.40;97.10;;;;;;5043046;28;19917;-71
2022/09/13 11:30:34;;;;;;;;;;;20.70;96.60;;;;;;5021521;28;19929;-71
2022/09/13 11:33:15;;;;;;;;;;;21.10;96.00;;;;;;5047141;28;19928;-71
2022/09/13 11:35:59;;;;;;;;;;;21.40;96.80;;;;;;5038611;28;20052;-71
2022/09/13 11:38:34;;;;;;;;;;;21.60;97.10;;;;;;5048909;28;19975;-71
2022/09/13 11:41:10;;;;;;;;;;;21.40;98.20;;;;;;5032372;28;19924;-71
2022/09/13 11:43:36;;;;;;;;;;;20.90;98.00;;;;;;5047911;28;19943;-71
2022/09/13 11:46:09;;;;;;;;;;;20.90;98.40;;;;;;5027350;28;20366;-71
2022/09/13 11:48:40;;;;;;;;;;;21.00;97.60;;;;;;5035884;28;19971;-72
2022/09/13 11:51:14;;;;;;;;;;;21.30;98.50;;;;;;5048718;28;19920;-71
2022/09/13 11:53:39;;;;;;;;;;;20.90;97.50;;;;;;5052953;28;19982;-71
2022/09/13 11:56:08;;;;;;;;;;;21.30;98.10;;;;;;5044605;28;20359;-71
2022/09/13 11:58:53;;;;;;;;;;;21.10;97.80;;;;;;5048600;28;19916;-72
2022/09/13 12:01:27;;;;;;;;;;;21.00;97.20;;;;;;5052367;28;19980;-72
2022/09/13 12:03:53;;;;;;;;;;;21.50;97.80;;;;;;5053726;28;19928;-71
2022/09/13 12:06:27;;;;;;;;;;;21.60;96.90;;;;;;5052230;28;19963;-71
2022/09/13 12:09:06;;;;;;;;;;;21.50;97.00;;;;;;5049260;28;19921;-71
2022/09/13 12:11:38;;;;;;;;;;;21.80;98.30;;;;;;5043009;28;20330;-72
2022/09/13 12:14:12;;;;;;;;;;;21.80;97.10;;;;;;5051927;28;19927;-72
2022/09/13 12:16:45;;;;;;;;;;;21.50;96.40;;;;;;5052380;28;20542;-72
2022/09/13 12:19:22;;;;;;;;;;;21.60;96.70;;;;;;5034142;28;20313;-71
2022/09/13 12:21:49;;;;;;;;;;;21.50;97.30;;;;;;5026785;28;19924;-72
2022/09/13 12:24:21;;;;;;;;;;;21.30;97.60;;;;;;5048775;28;19924;-71
2022/09/13 12:26:50;;;;;;;;;;;21.40;97.90;;;;;;5043691;28;19921;-71
2022/09/13 12:29:24;;;;;;;;;;;21.20;97.10;;;;;;5051748;28;19931;-71
2022/09/13 12:31:51;;;;;;;;;;;20.90;97.70;;;;;;5037818;28;19917;-71
2022/09/13 12:34:31;;;;;;;;;;;20.60;97.80;;;;;;5052277;28;19920;-72
2022/09/13 12:37:01;;;;;;;;;;;20.40;98.30;;;;;;5051754;28;19920;-71
2022/09/13 12:39:42;;;;;;;;;;;20.50;98.30;;;;;;5051814;28;20007;-71
2022/09/13 12:42:08;;;;;;;;;;;20.60;98.00;;;;;;5054828;28;19924;-71
2022/09/13 12:44:36;;;;;;;;;;;20.60;98.20;;;;;;5055166;28;19916;-72
2022/09/13 12:47:21;;;;;;;;;;;20.70;98.40;;;;;;5033019;28;19921;-72
2022/09/13 12:49:46;;;;;;;;;;;20.70;98.10;;;;;;5048776;28;19924;-72
2022/09/13 12:52:22;;;;;;;;;;;20.80;98.00;;;;;;5040820;28;19947;-72
2022/09/13 12:54:57;;;;;;;;;;;21.10;98.30;;;;;;5054049;28;19941;-72
2022/09/13 12:57:29;;;;;;;;;;;20.70;97.90;;;;;;5054630;28;19944;-72
2022/09/13 12:59:57;;;;;;;;;;;20.60;98.10;;;;;;5041640;28;20283;-72
2022/09/13 13:02:25;;;;;;;;;;;20.70;98.40;;;;;;5053939;28;20392;-72
2022/09/13 13:04:53;;;;;;;;;;;20.50;98.10;;;;;;5042858;28;19986;-72
2022/09/13 13:07:20;;;;;;;;;;;20.40;98.00;;;;;;5052381;28;19947;-72
2022/09/13 13:09:52;;;;;;;;;;;20.40;98.40;;;;;;5072902;28;19924;-72
2022/09/13 13:12:35;;;;;;;;;;;20.10;97.80;;;;;;5054134;28;19917;-72
2022/09/13 13:15:06;;;;;;;;;;;19.90;97.80;;;;;;5053977;28;20022;-72
2022/09/13 13:17:46;;;;;;;;;;;19.90;98.20;;;;;;5054107;28;20078;-72
2022/09/13 13:20:30;;;;;;;;;;;20.00;98.10;;;;;;5054154;28;19932;-71
2022/09/13 13:23:03;;;;;;;;;;;20.00;97.80;;;;;;5041191;28;19916;-71
2022/09/13 13:25:47;;;;;;;;;;;20.40;98.10;;;;;;5053917;28;20372;-71
2022/09/13 13:28:31;;;;;;;;;;;20.50;97.40;;;;;;5060224;28;19928;-71
2022/09/13 13:30:57;;;;;;;;;;;20.50;97.60;;;;;;5049587;28;20375;-71
2022/09/13 13:33:26;;;;;;;;;;;20.20;97.30;;;;;;5034204;28;19920;-71
2022/09/13 13:35:51;;;;;;;;;;;20.20;97.60;;;;;;5045165;28;19928;-71
2022/09/13 13:38:36;;;;;;;;;;;20.10;97.30;;;;;;5053441;28;19916;-71
2022/09/13 13:41:24;;;;;;;;;;;20.00;97.50;;;;;;5036979;28;19924;-71
2022/09/13 13:43:50;;;;;;;;;;;20.00;97.50;;;;;;5043902;28;19961;-71
2022/09/13 13:46:25;;;;;;;;;;;20.00;97.20;;;;;;5054127;28;19924;-71
2022/09/13 13:48:51;;;;;;;;;;;20.20;96.60;;;;;;5053900;28;19966;-71
2022/09/13 13:51:18;;;;;;;;;;;20.10;96.80;;;;;;5041288;28;20299;-72
2022/09/13 13:53:50;;;;;;;;;;;20.10;96.90;;;;;;5051934;28;19916;-72
2022/09/13 13:56:15;;;;;;;;;;;20.30;96.90;;;;;;5053635;28;19916;-72
2022/09/13 13:58:44;;;;;;;;;;;20.50;97.30;;;;;;5037095;28;19939;-72
2022/09/13 14:01:15;;;;;;;;;;;20.70;97.00;;;;;;5053561;28;19970;-72
2022/09/13 14:03:40;;;;;;;;;;;20.60;97.00;;;;;;5051218;28;20482;-72
2022/09/13 14:06:17;;;;;;;;;;;21.00;96.90;;;;;;5040523;28;20007;-72
2022/09/13 14:08:54;;;;;;;;;;;21.10;97.10;;;;;;5053383;28;19935;-72
2022/09/13 14:11:35;;;;;;;;;;;21.00;96.50;;;;;;5053140;28;19966;-72
2022/09/13 14:14:03;;;;;;;;;;;20.90;96.60;;;;;;5050127;28;19947;-72
2022/09/13 14:16:47;;;;;;;;;;;20.80;96.60;;;;;;5042717;28;19920;-72
2022/09/13 14:19:24;;;;;;;;;;;20.80;97.10;;;;;;5053056;28;19967;-73
2022/09/13 14:22:08;;;;;;;;;;;20.60;96.30;;;;;;5053404;28;19927;-72
2022/09/13 14:24:37;;;;;;;;;;;20.40;96.00;;;;;;5039270;28;20380;-72
2022/09/13 14:27:03;;;;;;;;;;;20.30;96.80;;;;;;5052827;28;20022;-72
2022/09/13 14:29:29;;;;;;;;;;;20.30;96.40;;;;;;5052939;28;19963;-72
2022/09/13 14:32:01;;;;;;;;;;;20.60;96.90;;;;;;5053005;28;19946;-72